Time;durP1;ratioP1;P1;durP2;ratioP2;P2;SDS_P1;SDS_P2;PMS_P1;PMS_P2;Temp;Humidity;BMP_temperature;BMP_pressure;BME280_temperature;BME280_humidity;BME280_pressure;Samples;Min_cycle;Max_cycle;Signal;HPM_P1;HPM_P2
2023/11/02 00:02:26;;;;;;;5.80;1.75;;;;;;;7.93;100.00;98995.22;4995174;28;20474;-76
2023/11/02 00:04:52;;;;;;;5.95;1.83;;;;;;;7.93;100.00;98971.38;4997202;28;20030;-77
2023/11/02 00:07:18;;;;;;;13.45;2.08;;;;;;;7.96;100.00;98978.19;4995790;28;20505;-76
2023/11/02 00:09:44;;;;;;;5.60;1.95;;;;;;;8.04;100.00;98956.16;4995661;28;20080;-75
2023/11/02 00:12:19;;;;;;;10.43;2.42;;;;;;;8.10;100.00;98958.94;4994012;28;20045;-76
2023/11/02 00:14:52;;;;;;;8.43;2.10;;;;;;;8.14;100.00;98953.31;4995558;28;20378;-76
2023/11/02 00:17:36;;;;;;;5.55;1.63;;;;;;;8.21;100.00;98959.56;4995894;28;20113;-77
2023/11/02 00:20:07;;;;;;;7.13;2.10;;;;;;;8.23;100.00;98939.06;4995489;28;20026;-76
2023/11/02 00:22:35;;;;;;;7.63;2.17;;;;;;;8.25;100.00;98929.91;4995958;28;20037;-76
2023/11/02 00:25:04;;;;;;;6.32;2.05;;;;;;;8.27;100.00;98927.09;4995604;28;20030;-76
2023/11/02 00:27:32;;;;;;;5.97;2.10;;;;;;;8.27;100.00;98911.19;4995390;28;20038;-77
2023/11/02 00:29:57;;;;;;;8.63;2.08;;;;;;;8.27;100.00;98890.84;4995186;28;20038;-76
2023/11/02 00:32:23;;;;;;;6.97;1.98;;;;;;;8.30;100.00;98874.59;4994886;28;20037;-76
2023/11/02 00:34:48;;;;;;;8.27;1.77;;;;;;;8.33;100.00;98854.03;4995203;28;20057;-75
2023/11/02 00:37:14;;;;;;;9.88;2.22;;;;;;;8.35;100.00;98841.47;4995383;28;20040;-75
2023/11/02 00:39:40;;;;;;;9.77;2.05;;;;;;;8.35;100.00;98842.28;4994657;28;20390;-76
2023/11/02 00:42:06;;;;;;;9.65;1.83;;;;;;;8.41;100.00;98835.47;4995275;28;20030;-76
2023/11/02 00:44:33;;;;;;;2.42;1.30;;;;;;;8.43;100.00;98839.59;4995653;28;20081;-75
2023/11/02 00:46:59;;;;;;;12.73;2.20;;;;;;;8.42;100.00;98837.09;4995243;28;20042;-77
2023/11/02 00:49:37;;;;;;;6.00;1.83;;;;;;;8.44;100.00;98833.31;4993673;28;20041;-77
2023/11/02 00:52:05;;;;;;;9.25;1.73;;;;;;;8.46;100.00;98822.53;4995521;28;20030;-79
2023/11/02 00:54:55;;;;;;;4.68;1.50;;;;;;;8.49;100.00;98808.13;4994721;28;20042;-76
2023/11/02 00:57:23;;;;;;;6.27;1.70;;;;;;;8.48;100.00;98802.00;4994126;28;20046;-76
2023/11/02 00:59:51;;;;;;;9.55;2.00;;;;;;;8.53;100.00;98790.88;4994598;28;20076;-77
2023/11/02 01:02:17;;;;;;;8.65;1.30;;;;;;;8.56;100.00;98783.38;4994533;28;20034;-78
2023/11/02 01:04:43;;;;;;;6.13;1.50;;;;;;;8.58;100.00;98760.19;4994813;28;20117;-75
2023/11/02 01:07:10;;;;;;;9.23;1.80;;;;;;;8.61;100.00;98764.28;4994606;28;20454;-77
2023/11/02 01:09:47;;;;;;;12.00;2.08;;;;;;;8.66;100.00;98751.34;4994470;28;20467;-77
2023/11/02 01:12:31;;;;;;;3.90;1.23;;;;;;;8.69;100.00;98743.03;4994810;28;20030;-75
2023/11/02 01:14:57;;;;;;;9.50;1.73;;;;;;;8.71;100.00;98730.41;4994402;28;20033;-78
2023/11/02 01:17:33;;;;;;;5.28;1.40;;;;;;;8.77;100.00;98713.78;4994354;28;20030;-78
2023/11/02 01:20:10;;;;;;;9.18;2.22;;;;;;;8.83;100.00;98704.28;4995290;28;20057;-77
2023/11/02 01:22:52;;;;;;;10.48;2.15;;;;;;;8.85;100.00;98686.38;4994343;28;20470;-77
2023/11/02 01:25:19;;;;;;;12.98;2.75;;;;;;;8.86;100.00;98671.28;4976953;28;20034;-81
2023/11/02 01:27:46;;;;;;;6.63;1.60;;;;;;;8.90;100.00;98667.28;4993046;28;20104;-76
2023/11/02 01:30:17;;;;;;;5.55;1.60;;;;;;;8.94;100.00;98660.59;4994321;28;20063;-77
2023/11/02 01:32:42;;;;;;;10.52;1.33;;;;;;;8.93;100.00;98643.06;4994781;28;20046;-78
2023/11/02 01:35:28;;;;;;;11.43;1.88;;;;;;;8.95;100.00;98627.78;4993522;28;20058;-76
2023/11/02 01:37:54;;;;;;;8.25;1.67;;;;;;;8.95;100.00;98611.84;4994337;28;20471;-77
2023/11/02 01:40:35;;;;;;;5.78;1.50;;;;;;;8.96;100.00;98621.47;4994378;28;20045;-81
2023/11/02 01:43:03;;;;;;;6.93;1.88;;;;;;;8.95;100.00;98582.69;4994141;28;20026;-77
2023/11/02 01:45:33;;;;;;;4.10;1.52;;;;;;;8.92;100.00;98554.69;4994049;28;20458;-76
2023/11/02 01:48:05;;;;;;;7.35;1.63;;;;;;;8.87;100.00;98533.22;4994085;28;20034;-77
2023/11/02 01:50:35;;;;;;;8.40;1.60;;;;;;;8.85;100.00;98529.91;4993978;28;20034;-76
2023/11/02 01:53:21;;;;;;;4.03;1.73;;;;;;;8.86;100.00;98514.84;4994352;28;20026;-77
2023/11/02 01:56:04;;;;;;;5.65;1.60;;;;;;;8.86;100.00;98506.88;4994512;28;20050;-77
2023/11/02 01:58:35;;;;;;;5.00;1.42;;;;;;;8.86;100.00;98491.78;4994045;28;20026;-75
2023/11/02 02:01:17;;;;;;;6.30;1.73;;;;;;;8.86;100.00;98472.41;4993972;28;20030;-74
2023/11/02 02:03:53;;;;;;;;;;;;;;;8.88;100.00;98463.25;4994571;28;20106;-76
2023/11/02 02:06:39;;;;;;;5.68;1.45;;;;;;;8.90;100.00;98449.81;4994007;28;19910;-77
2023/11/02 02:09:19;;;;;;;7.15;1.40;;;;;;;8.94;100.00;98441.31;4996628;28;20030;-78
2023/11/02 02:11:57;;;;;;;5.55;1.15;;;;;;;8.93;100.00;98447.59;4997774;28;20034;-75
2023/11/02 02:14:31;;;;;;;9.63;1.52;;;;;;;8.93;100.00;98446.78;4998598;28;20030;-78
2023/11/02 02:17:07;;;;;;;6.40;1.23;;;;;;;8.93;100.00;98441.50;4997822;28;20030;-78
2023/11/02 02:19:46;;;;;;;15.52;2.17;;;;;;;8.88;100.00;98438.56;4998452;28;20031;-79
2023/11/02 02:22:18;;;;;;;7.55;1.33;;;;;;;8.84;100.00;98419.56;4998012;28;20484;-78
2023/11/02 02:24:50;;;;;;;5.88;1.30;;;;;;;8.80;100.00;98411.13;4997609;28;20067;-78
2023/11/02 02:27:39;;;;;;;4.65;1.30;;;;;;;8.79;100.00;98395.41;4997882;28;20030;-77
2023/11/02 02:30:23;;;;;;;10.32;1.85;;;;;;;8.79;100.00;98371.56;4996288;28;20031;-77
2023/11/02 02:33:22;;;;;;;5.03;1.60;;;;;;;8.82;100.00;98352.63;4997997;28;20046;-77
2023/11/02 02:35:56;;;;;;;8.60;1.63;;;;;;;8.86;100.00;98342.47;4997577;28;20121;-77
2023/11/02 02:38:32;;;;;;;7.20;1.40;;;;;;;8.88;100.00;98319.22;4997660;28;20034;-75
2023/11/02 02:41:10;;;;;;;5.28;2.00;;;;;;;8.91;100.00;98321.50;4997636;28;20065;-77
2023/11/02 02:43:36;;;;;;;6.20;1.45;;;;;;;8.92;100.00;98323.16;4997986;28;20041;-77
2023/11/02 02:46:04;;;;;;;9.70;1.80;;;;;;;8.97;100.00;98320.72;4995970;28;20034;-80
2023/11/02 02:48:30;;;;;;;6.90;1.45;;;;;;;8.98;100.00;98314.44;4997055;28;20034;-76
2023/11/02 02:50:57;;;;;;;8.70;1.63;;;;;;;9.02;100.00;98298.94;4996815;28;20530;-76
2023/11/02 02:53:27;;;;;;;9.25;1.40;;;;;;;9.04;100.00;98275.72;4997574;28;20112;-75
2023/11/02 02:55:58;;;;;;;7.63;1.63;;;;;;;9.06;100.00;98279.00;4996755;28;20050;-78
2023/11/02 02:58:26;;;;;;;7.15;1.75;;;;;;;9.05;100.00;98267.56;4997006;28;20038;-76
2023/11/02 03:00:52;;;;;;;8.43;1.67;;;;;;;9.06;100.00;98250.66;4996950;28;20192;-77
2023/11/02 03:03:21;;;;;;;6.50;1.50;;;;;;;9.07;100.00;98233.69;4995690;28;20046;-77
2023/11/02 03:05:46;;;;;;;6.07;1.50;;;;;;;9.09;100.00;98233.50;4997604;28;20331;-76
2023/11/02 03:08:15;;;;;;;5.20;1.42;;;;;;;9.08;100.00;98205.38;4996852;28;20041;-78
2023/11/02 03:10:43;;;;;;;10.57;1.70;;;;;;;9.10;100.00;98184.75;4995463;28;20411;-76
2023/11/02 03:13:11;;;;;;;9.00;2.80;;;;;;;9.08;100.00;98169.03;4996811;28;20026;-77
2023/11/02 03:15:41;;;;;;;6.88;1.30;;;;;;;9.11;100.00;98139.47;4997299;28;20037;-77
2023/11/02 03:18:14;;;;;;;6.53;1.52;;;;;;;9.12;100.00;98143.78;4995614;28;20429;-78
2023/11/02 03:20:42;;;;;;;10.10;1.77;;;;;;;9.13;100.00;98121.50;4995866;28;20486;-77
2023/11/02 03:23:21;;;;;;;9.75;1.42;;;;;;;9.16;100.00;98115.00;4995593;28;20065;-77
2023/11/02 03:25:55;;;;;;;11.25;2.88;;;;;;;9.16;100.00;98131.72;4996715;28;20061;-77
2023/11/02 03:28:46;;;;;;;6.20;1.50;;;;;;;9.21;100.00;98127.69;4995401;28;20458;-79
2023/11/02 03:31:32;;;;;;;6.15;1.38;;;;;;;9.21;100.00;98120.56;4996723;28;20030;-75
2023/11/02 03:34:26;;;;;;;6.15;1.30;;;;;;;9.17;100.00;98093.59;4995226;28;20037;-77
2023/11/02 03:37:04;;;;;;;4.13;1.30;;;;;;;9.22;100.00;98071.75;4981743;28;20030;-78
2023/11/02 03:39:47;;;;;;;8.68;1.58;;;;;;;9.23;100.00;98038.91;4996332;28;20046;-76
2023/11/02 03:42:15;;;;;;;5.93;1.30;;;;;;;9.25;100.00;98033.41;4996216;28;20030;-77
2023/11/02 03:44:53;;;;;;;7.88;1.50;;;;;;;9.26;100.00;98016.50;4996000;28;20046;-76
2023/11/02 03:47:36;;;;;;;7.50;2.00;;;;;;;9.27;100.00;98010.13;4996629;28;20030;-75
2023/11/02 03:50:10;;;;;;;12.70;1.75;;;;;;;9.30;100.00;97997.31;4996774;28;20038;-75
2023/11/02 03:52:44;;;;;;;5.70;1.42;;;;;;;9.29;100.00;98016.09;4996347;28;20029;-76
2023/11/02 03:55:23;;;;;;;7.43;1.58;;;;;;;9.27;100.00;97994.22;4996229;28;20026;-75
2023/11/02 03:58:01;;;;;;;6.47;1.38;;;;;;;9.27;100.00;97971.19;4995754;28;20050;-76
2023/11/02 04:00:31;;;;;;;7.07;1.67;;;;;;;9.30;100.00;97967.28;4995834;28;20497;-77
2023/11/02 04:03:03;;;;;;;6.57;1.55;;;;;;;9.30;100.00;97928.31;4996317;28;20034;-75
2023/11/02 04:05:37;;;;;;;9.77;1.52;;;;;;;9.32;100.00;97899.75;4995732;28;20037;-77
2023/11/02 04:08:17;;;;;;;8.77;2.03;;;;;;;9.35;100.00;97893.22;4995655;28;20081;-77
2023/11/02 04:11:13;;;;;;;7.32;1.63;;;;;;;9.37;100.00;97874.44;4995546;28;20038;-77
2023/11/02 04:13:53;;;;;;;7.85;1.55;;;;;;;9.40;100.00;97858.13;4993625;28;20050;-77
2023/11/02 04:16:19;;;;;;;7.70;1.55;;;;;;;9.40;100.00;97858.91;4996248;28;20363;-78
2023/11/02 04:18:44;;;;;;;6.93;1.85;;;;;;;9.44;100.00;97851.38;4995649;28;20026;-76
2023/11/02 04:21:11;;;;;;;3.95;1.40;;;;;;;9.51;100.00;97855.66;4995409;28;20433;-76
2023/11/02 04:23:37;;;;;;;9.13;1.95;;;;;;;9.52;100.00;97832.59;4995613;28;20049;-77
2023/11/02 04:26:02;;;;;;;7.28;1.58;;;;;;;9.51;100.00;97815.84;4995264;28;20117;-76
2023/11/02 04:28:28;;;;;;;8.85;1.52;;;;;;;9.54;100.00;97827.91;4995040;28;20049;-76
2023/11/02 04:30:53;;;;;;;6.78;1.55;;;;;;;9.58;100.00;97820.31;4995023;28;20478;-76
2023/11/02 04:33:19;;;;;;;8.10;1.10;;;;;;;9.60;100.00;97821.75;4995512;28;20042;-76
2023/11/02 04:35:44;;;;;;;5.43;1.30;;;;;;;9.60;100.00;97802.34;4995035;28;20034;-81
2023/11/02 04:38:10;;;;;;;3.38;1.10;;;;;;;9.58;100.00;97807.88;4994547;28;20038;-77
2023/11/02 04:40:36;;;;;;;4.25;1.00;;;;;;;9.62;100.00;97792.34;4993779;28;20061;-75
2023/11/02 04:43:02;;;;;;;7.05;1.30;;;;;;;9.67;100.00;97797.84;4978342;28;20061;-75
2023/11/02 04:45:29;;;;;;;4.43;1.10;;;;;;;9.67;100.00;97789.88;4995465;28;20450;-77
2023/11/02 04:47:55;;;;;;;5.15;1.25;;;;;;;9.69;100.00;97780.69;4995042;28;20112;-78
2023/11/02 04:50:21;;;;;;;2.22;1.00;;;;;;;9.69;100.00;97762.13;4994701;28;20479;-76
2023/11/02 04:52:49;;;;;;;7.32;1.25;;;;;;;9.69;100.00;97758.66;4994962;28;20057;-79
2023/11/02 04:55:14;;;;;;;5.70;1.20;;;;;;;9.58;100.00;97752.13;4995500;28;20037;-77
2023/11/02 04:57:40;;;;;;;5.90;1.40;;;;;;;9.43;100.00;97744.41;4993571;28;20054;-77
2023/11/02 05:00:06;;;;;;;6.43;1.48;;;;;;;9.30;100.00;97728.50;4995477;28;20034;-78
2023/11/02 05:02:31;;;;;;;3.55;0.90;;;;;;;9.22;100.00;97732.19;4994914;28;20042;-79
2023/11/02 05:04:57;;;;;;;1.40;0.98;;;;;;;9.19;100.00;97714.03;4994622;28;20038;-76
2023/11/02 05:07:22;;;;;;;8.80;1.20;;;;;;;9.18;100.00;97710.56;4994610;28;20100;-77
2023/11/02 05:09:48;;;;;;;8.32;1.25;;;;;;;9.29;100.00;97703.81;4993414;28;20034;-77
2023/11/02 05:12:13;;;;;;;6.18;1.30;;;;;;;9.42;100.00;97687.06;4993610;28;20073;-76
2023/11/02 05:14:39;;;;;;;4.65;1.02;;;;;;;9.48;100.00;97659.69;4993524;28;20042;-77
2023/11/02 05:17:04;;;;;;;7.30;1.27;;;;;;;9.57;100.00;97656.78;4994056;28;20035;-76
2023/11/02 05:19:30;;;;;;;4.20;1.58;;;;;;;9.63;100.00;97650.63;4993117;28;20461;-77
2023/11/02 05:21:55;;;;;;;3.70;1.10;;;;;;;9.65;100.00;97646.75;4994384;28;20076;-76
2023/11/02 05:24:21;;;;;;;3.85;1.02;;;;;;;9.66;100.00;97640.41;4977144;28;20078;-76
2023/11/02 05:26:47;;;;;;;2.58;1.00;;;;;;;9.55;100.00;97611.06;4994310;28;20121;-78
2023/11/02 05:29:12;;;;;;;2.42;1.02;;;;;;;9.30;100.00;97604.63;4994583;28;20108;-80
2023/11/02 05:31:38;;;;;;;6.57;1.13;;;;;;;9.13;100.00;97619.38;4993985;28;20031;-78
2023/11/02 05:34:03;;;;;;;3.63;0.93;;;;;;;9.03;100.00;97565.94;4994460;28;20037;-80
2023/11/02 05:36:28;;;;;;;4.88;1.20;;;;;;;9.06;100.00;97600.84;4992916;28;20040;-77
2023/11/02 05:38:54;;;;;;;5.30;1.55;;;;;;;9.10;100.00;97596.72;4994405;28;20045;-80
2023/11/02 05:41:20;;;;;;;5.05;0.90;;;;;;;9.14;100.00;97578.56;4976727;28;20045;-78
2023/11/02 05:43:45;;;;;;;3.28;1.05;;;;;;;9.10;100.00;97564.91;4992654;28;20375;-78
2023/11/02 05:46:11;;;;;;;1.52;0.73;;;;;;;9.04;100.00;97584.31;4992806;28;20041;-78
2023/11/02 05:48:36;;;;;;;4.10;1.27;;;;;;;9.00;100.00;97567.19;4993714;28;20068;-78
2023/11/02 05:51:02;;;;;;;1.40;1.00;;;;;;;8.96;100.00;97569.44;4994067;28;20038;-80
2023/11/02 05:53:28;;;;;;;2.63;0.88;;;;;;;8.85;100.00;97554.16;4993790;28;20482;-82
2023/11/02 05:55:53;;;;;;;5.65;1.20;;;;;;;8.71;100.00;97536.69;4993639;28;20060;-79
2023/11/02 05:58:18;;;;;;;1.92;1.05;;;;;;;8.57;100.00;97544.66;4993945;28;20034;-80
2023/11/02 06:00:44;;;;;;;2.35;0.80;;;;;;;8.50;100.00;97524.50;4993921;28;20089;-81
2023/11/02 06:03:09;;;;;;;1.90;0.68;;;;;;;8.42;100.00;97536.06;4993672;28;20449;-80
2023/11/02 06:05:34;;;;;;;4.57;1.40;;;;;;;8.39;100.00;97531.19;4994304;28;20031;-80
2023/11/02 06:08:00;;;;;;;5.30;1.10;;;;;;;8.33;100.00;97513.47;4993838;28;20034;-78
2023/11/02 06:10:25;;;;;;;4.60;1.00;;;;;;;8.32;100.00;97510.03;4992617;28;20073;-80
2023/11/02 06:12:51;;;;;;;2.40;0.98;;;;;;;8.30;100.00;97501.47;4993878;28;20026;-79
2023/11/02 06:15:16;;;;;;;3.42;1.10;;;;;;;8.30;100.00;97477.63;4993813;28;20100;-79
2023/11/02 06:17:41;;;;;;;2.85;1.00;;;;;;;8.30;100.00;97489.03;4993788;28;20030;-80
2023/11/02 06:20:07;;;;;;;3.25;1.38;;;;;;;8.34;100.00;97475.38;4993767;28;20152;-82
2023/11/02 06:22:33;;;;;;;4.65;1.00;;;;;;;8.40;100.00;97479.84;4993702;28;20038;-80
2023/11/02 06:24:59;;;;;;;3.47;0.85;;;;;;;8.44;100.00;97473.94;4993505;28;20039;-80
2023/11/02 06:27:24;;;;;;;2.72;1.10;;;;;;;8.51;100.00;97470.47;4993394;28;20049;-80
2023/11/02 06:29:51;;;;;;;5.93;1.17;;;;;;;8.59;100.00;97447.22;4993733;28;20122;-86
2023/11/02 06:32:16;;;;;;;3.97;1.75;;;;;;;8.68;100.00;97447.00;4993421;28;20125;-79
2023/11/02 06:34:41;;;;;;;6.13;1.50;;;;;;;8.72;100.00;97450.81;4993765;28;20086;-80
2023/11/02 06:37:08;;;;;;;5.72;1.00;;;;;;;8.70;100.00;97426.38;4992604;28;20038;-81
2023/11/02 06:39:35;;;;;;;7.10;1.23;;;;;;;8.66;100.00;97412.75;4993498;28;20474;-78
2023/11/02 06:42:00;;;;;;;3.45;1.00;;;;;;;8.61;100.00;97426.63;4993096;28;20502;-80
2023/11/02 06:44:25;;;;;;;6.40;1.35;;;;;;;8.61;100.00;97409.91;4993802;28;20039;-83
2023/11/02 06:46:51;;;;;;;2.65;1.00;;;;;;;8.57;100.00;97382.19;4993066;28;20040;-82
2023/11/02 06:49:17;;;;;;;2.00;1.00;;;;;;;8.55;100.00;97402.78;4993509;28;20466;-82
2023/11/02 06:51:43;;;;;;;4.10;1.35;;;;;;;8.61;100.00;97396.66;4993386;28;20066;-80
2023/11/02 06:54:08;;;;;;;3.05;1.02;;;;;;;8.62;100.00;97385.03;4994083;28;20038;-80
2023/11/02 06:56:34;;;;;;;2.90;1.20;;;;;;;8.69;100.00;97377.88;4995398;28;20061;-78
2023/11/02 06:58:59;;;;;;;3.35;1.15;;;;;;;8.73;100.00;97379.06;4996906;28;20026;-83
2023/11/02 07:01:26;;;;;;;4.25;1.30;;;;;;;8.78;100.00;97373.94;4996898;28;20092;-81
2023/11/02 07:03:52;;;;;;;4.60;1.15;;;;;;;8.83;100.00;97373.31;4996327;28;20066;-81
2023/11/02 07:06:18;;;;;;;3.08;1.00;;;;;;;8.89;100.00;97361.03;4997231;28;20062;-80
2023/11/02 07:08:43;;;;;;;4.22;1.08;;;;;;;8.96;100.00;97356.50;4996595;28;20038;-80
2023/11/02 07:11:09;;;;;;;2.67;1.02;;;;;;;8.99;100.00;97372.78;4997044;28;20160;-82
2023/11/02 07:13:34;;;;;;;2.70;1.17;;;;;;;9.07;100.00;97324.00;4996983;28;20039;-84
2023/11/02 07:16:00;;;;;;;2.42;0.90;;;;;;;9.11;100.00;97329.69;4996700;28;20463;-81
2023/11/02 07:18:25;;;;;;;4.20;0.95;;;;;;;9.15;100.00;97347.63;4996609;28;20030;-81
2023/11/02 07:20:50;;;;;;;2.30;1.15;;;;;;;9.23;100.00;97325.31;4995367;28;20038;-81
2023/11/02 07:23:16;;;;;;;3.38;1.35;;;;;;;9.24;100.00;97326.13;4996506;28;20030;-80
2023/11/02 07:25:41;;;;;;;4.45;1.02;;;;;;;9.26;100.00;97321.41;4995537;28;20504;-78
2023/11/02 07:28:07;;;;;;;2.58;1.10;;;;;;;9.26;100.00;97310.81;4995494;28;20038;-81
2023/11/02 07:30:32;;;;;;;3.42;1.10;;;;;;;9.23;100.00;97284.72;4996934;28;20034;-82
2023/11/02 07:32:58;;;;;;;4.43;1.20;;;;;;;9.26;100.00;97289.59;4995370;28;20034;-84
2023/11/02 07:35:25;;;;;;;4.20;1.10;;;;;;;9.27;100.00;97283.22;4996821;28;20062;-84
2023/11/02 07:37:51;;;;;;;3.08;1.40;;;;;;;9.26;100.00;97274.47;4998077;28;20026;-81
2023/11/02 07:40:17;;;;;;;2.97;1.25;;;;;;;9.26;100.00;97279.78;4996231;28;20026;-83
2023/11/02 07:42:43;;;;;;;7.13;1.50;;;;;;;9.23;100.00;97282.88;4996232;28;20114;-80
2023/11/02 07:45:09;;;;;;;4.13;1.23;;;;;;;9.20;100.00;97279.84;4995009;28;20117;-82
2023/11/02 07:47:34;;;;;;;4.85;1.38;;;;;;;9.13;100.00;97262.13;4995240;28;20137;-82
2023/11/02 07:50:00;;;;;;;4.82;1.20;;;;;;;9.12;100.00;97265.00;4996322;28;20117;-82
2023/11/02 07:52:26;;;;;;;6.60;1.30;;;;;;;9.11;100.00;97285.41;4995881;28;20034;-84
2023/11/02 07:54:51;;;;;;;2.90;1.17;;;;;;;9.11;100.00;97260.75;4996246;28;20033;-81
2023/11/02 07:57:18;;;;;;;5.18;1.30;;;;;;;9.09;100.00;97274.22;4996345;28;20382;-81
2023/11/02 07:59:43;;;;;;;3.50;1.30;;;;;;;9.09;100.00;97260.13;4996085;28;20034;-81
2023/11/02 08:02:09;;;;;;;7.45;1.60;;;;;;;9.09;100.00;97257.47;4995864;28;20038;-81
2023/11/02 08:04:35;;;;;;;4.95;1.80;;;;;;;9.07;100.00;97252.38;4994362;28;20038;-82
2023/11/02 08:07:00;;;;;;;7.50;1.67;;;;;;;9.06;100.00;97264.03;4995103;28;20121;-83
2023/11/02 08:09:26;;;;;;;3.65;1.42;;;;;;;9.08;100.00;97254.03;4994330;28;20030;-82
2023/11/02 08:11:51;;;;;;;8.43;1.90;;;;;;;9.07;100.00;97241.78;4995709;28;20038;-82
2023/11/02 08:14:18;;;;;;;7.78;1.50;;;;;;;9.09;100.00;97237.09;4994896;28;20026;-83
2023/11/02 08:16:43;;;;;;;10.80;1.85;;;;;;;9.09;100.00;97233.59;4994994;28;20092;-80
2023/11/02 08:19:09;;;;;;;8.57;1.55;;;;;;;9.10;100.00;97229.94;4994092;28;20034;-82
2023/11/02 08:21:34;;;;;;;6.00;1.42;;;;;;;9.09;100.00;97215.88;4995345;28;20086;-82
2023/11/02 08:24:00;;;;;;;10.75;1.60;;;;;;;9.10;100.00;97216.69;4995293;28;20066;-82
2023/11/02 08:26:25;;;;;;;12.40;1.85;;;;;;;9.11;100.00;97207.69;4995282;28;20039;-83
2023/11/02 08:28:52;;;;;;;5.50;1.10;;;;;;;9.13;100.00;97203.78;4994146;28;20090;-83
2023/11/02 08:31:24;;;;;;;8.57;1.70;;;;;;;9.15;100.00;97190.28;4995292;28;20048;-82
2023/11/02 08:33:50;;;;;;;9.73;1.70;;;;;;;9.14;100.00;97181.53;4993796;28;20038;-80
2023/11/02 08:36:16;;;;;;;7.80;1.35;;;;;;;9.16;100.00;97178.66;4993745;28;20037;-79
2023/11/02 08:38:41;;;;;;;5.07;1.67;;;;;;;9.18;100.00;97171.28;4994970;28;20053;-79
2023/11/02 08:41:16;;;;;;;11.60;1.50;;;;;;;9.16;100.00;97160.91;4994886;28;20077;-83
2023/11/02 08:43:46;;;;;;;8.45;1.88;;;;;;;9.19;100.00;97164.97;4995021;28;20445;-79
2023/11/02 08:46:20;;;;;;;10.38;1.70;;;;;;;9.14;100.00;97147.06;4995287;28;20064;-80
2023/11/02 08:48:46;;;;;;;10.90;1.40;;;;;;;9.22;100.00;97174.34;4994984;28;20030;-81
2023/11/02 08:51:14;;;;;;;21.40;1.90;;;;;;;9.21;100.00;97156.78;4993749;28;20437;-80
2023/11/02 08:53:40;;;;;;;9.70;2.15;;;;;;;9.17;100.00;97135.22;4994793;28;20032;-83
2023/11/02 08:56:09;;;;;;;9.63;1.55;;;;;;;9.14;100.00;97139.09;4994659;28;20125;-81
2023/11/02 08:58:45;;;;;;;7.80;2.10;;;;;;;9.13;100.00;97126.06;4995219;28;20097;-82
2023/11/02 09:01:17;;;;;;;10.40;1.70;;;;;;;9.12;100.00;97127.09;4994699;28;20038;-81
2023/11/02 09:03:42;;;;;;;6.55;1.50;;;;;;;9.08;100.00;97134.69;4994712;28;20022;-80
2023/11/02 09:06:08;;;;;;;12.38;2.58;;;;;;;9.05;100.00;97121.06;4993475;28;20112;-86
2023/11/02 09:08:36;;;;;;;12.77;2.50;;;;;;;9.05;100.00;97121.88;4994540;28;20033;-82
2023/11/02 09:11:02;;;;;;;11.63;1.90;;;;;;;9.04;100.00;97117.59;4994344;28;20134;-77
2023/11/02 09:13:28;;;;;;;11.35;1.70;;;;;;;8.99;100.00;97114.78;4993325;28;20041;-80
2023/11/02 09:15:54;;;;;;;7.13;1.50;;;;;;;8.98;100.00;97119.28;4994670;28;20037;-77
2023/11/02 09:18:20;;;;;;;14.95;2.42;;;;;;;8.95;100.00;97106.47;4994237;28;20030;-78
2023/11/02 09:20:46;;;;;;;11.68;1.80;;;;;;;8.95;100.00;97116.25;4994292;28;20621;-80
2023/11/02 09:23:11;;;;;;;4.70;1.50;;;;;;;8.94;100.00;97119.94;4994131;28;20117;-84
2023/11/02 09:25:36;;;;;;;12.00;2.15;;;;;;;8.96;100.00;97118.69;4993044;28;20073;-78
2023/11/02 09:28:03;;;;;;;12.30;1.83;;;;;;;8.94;100.00;97115.47;4994076;28;20121;-77
2023/11/02 09:30:28;;;;;;;12.30;2.08;;;;;;;8.91;100.00;97123.84;4993939;28;20387;-78
2023/11/02 09:32:54;;;;;;;11.48;2.08;;;;;;;8.89;100.00;97112.63;4994506;28;20038;-78
2023/11/02 09:35:19;;;;;;;12.60;2.00;;;;;;;8.90;100.00;97106.31;4994517;28;20034;-77
2023/11/02 09:37:44;;;;;;;10.23;1.77;;;;;;;8.83;100.00;97109.00;4993788;28;20038;-77
2023/11/02 09:40:10;;;;;;;10.80;2.10;;;;;;;8.84;100.00;97117.81;4993868;28;20057;-81
2023/11/02 09:42:36;;;;;;;11.52;1.88;;;;;;;8.82;100.00;97103.94;4993886;28;20061;-77
2023/11/02 09:45:05;;;;;;;14.77;1.90;;;;;;;8.85;100.00;97090.25;4994090;28;20039;-77
2023/11/02 09:47:32;;;;;;;15.02;2.80;;;;;;;8.87;100.00;97109.41;4994159;28;20061;-78
2023/11/02 09:49:57;;;;;;;15.25;2.55;;;;;;;8.85;100.00;97103.50;4994554;28;20381;-79
2023/11/02 09:52:23;;;;;;;17.35;1.95;;;;;;;8.86;100.00;97096.38;4993459;28;20121;-76
2023/11/02 09:54:49;;;;;;;12.23;1.80;;;;;;;8.86;100.00;97102.47;4993729;28;20042;-78
2023/11/02 09:57:15;;;;;;;15.07;2.58;;;;;;;8.95;100.00;97105.66;4993040;28;20439;-80
2023/11/02 09:59:46;;;;;;;8.70;1.65;;;;;;;8.99;100.00;97097.03;4994347;28;20085;-81
2023/11/02 10:02:12;;;;;;;12.05;1.55;;;;;;;9.04;100.00;97093.72;4995487;28;20038;-80
2023/11/02 10:04:38;;;;;;;14.95;2.15;;;;;;;9.07;100.00;97090.63;4995089;28;20045;-78
2023/11/02 10:07:07;;;;;;;11.40;2.28;;;;;;;9.12;100.00;97074.06;4993454;28;20034;-78
2023/11/02 10:09:32;;;;;;;10.80;2.22;;;;;;;9.16;100.00;97068.06;4992545;28;20034;-79
2023/11/02 10:11:57;;;;;;;14.50;2.10;;;;;;;9.23;100.00;97065.38;4993318;28;20030;-80
2023/11/02 10:14:23;;;;;;;12.85;1.85;;;;;;;9.37;100.00;97054.59;4992515;28;20034;-80
2023/11/02 10:16:48;;;;;;;10.57;1.55;;;;;;;9.49;100.00;97045.66;4992300;28;20490;-80
2023/11/02 10:19:14;;;;;;;6.45;1.67;;;;;;;9.59;100.00;97055.72;4992702;28;20031;-79
2023/11/02 10:21:39;;;;;;;15.57;1.90;;;;;;;9.70;100.00;97044.34;4994284;28;20080;-83
2023/11/02 10:24:05;;;;;;;7.88;1.58;;;;;;;9.63;100.00;97093.22;4992323;28;20386;-79
2023/11/02 10:26:34;;;;;;;9.40;1.40;;;;;;;9.53;100.00;97065.38;4993955;28;20049;-79
2023/11/02 10:29:02;;;;;;;16.38;1.88;;;;;;;9.39;100.00;97079.03;4994597;28;20038;-79
2023/11/02 10:31:30;;;;;;;7.43;1.85;;;;;;;9.32;100.00;97068.53;4999404;28;20371;-80
2023/11/02 10:33:59;;;;;;;11.23;1.60;;;;;;;9.32;100.00;97113.63;4999911;28;20037;-78
2023/11/02 10:36:25;;;;;;;8.45;1.55;;;;;;;9.38;100.00;97058.88;4999892;28;20026;-85
2023/11/02 10:38:50;;;;;;;13.32;1.98;;;;;;;9.37;100.00;97076.63;4998781;28;20044;-80
2023/11/02 10:41:16;;;;;;;9.95;1.70;;;;;;;9.42;100.00;97049.41;5000118;28;20443;-80
2023/11/02 10:43:47;;;;;;;12.48;2.08;;;;;;;9.39;100.00;97073.72;4998570;28;20030;-79
2023/11/02 10:46:15;;;;;;;10.45;1.55;;;;;;;9.42;100.00;97031.66;4997841;28;20556;-80
2023/11/02 10:48:41;;;;;;;7.70;1.50;;;;;;;9.49;100.00;97019.13;4995244;28;20486;-79
2023/11/02 10:51:20;;;;;;;9.63;1.55;;;;;;;9.51;100.00;97027.66;4996934;28;20561;-79
2023/11/02 10:54:12;;;;;;;9.70;1.40;;;;;;;9.47;100.00;97031.00;4996887;28;20031;-81
2023/11/02 10:56:49;;;;;;;10.60;1.77;;;;;;;9.33;100.00;97041.78;4996845;28;20061;-83
2023/11/02 10:59:15;;;;;;;11.00;1.77;;;;;;;9.18;100.00;97036.03;5012349;28;20027;-81
2023/11/02 11:01:41;;;;;;;7.72;1.27;;;;;;;9.07;100.00;97037.59;4997102;28;20092;-79
2023/11/02 11:04:10;;;;;;;9.95;1.77;;;;;;;8.99;100.00;97014.03;4995606;28;20034;-81
2023/11/02 11:06:39;;;;;;;4.07;1.17;;;;;;;9.00;100.00;97019.13;4996788;28;20097;-80
2023/11/02 11:09:04;;;;;;;8.88;1.42;;;;;;;9.21;100.00;97005.59;4997269;28;20386;-85
2023/11/02 11:11:32;;;;;;;8.02;1.30;;;;;;;9.25;100.00;96989.00;4996279;28;20038;-86
2023/11/02 11:13:58;;;;;;;9.38;2.42;;;;;;;9.25;100.00;97012.88;4997981;28;20057;-82
2023/11/02 11:16:25;;;;;;;10.80;1.40;;;;;;;9.32;100.00;96996.91;4996738;28;20031;-84
2023/11/02 11:18:52;;;;;;;5.38;1.02;;;;;;;9.49;100.00;97010.34;4996747;28;20129;-82
2023/11/02 11:21:21;;;;;;;6.55;1.55;;;;;;;9.54;100.00;96983.94;4997031;28;20034;-81
2023/11/02 11:23:48;;;;;;;8.00;1.60;;;;;;;9.60;100.00;96979.56;4996785;28;20026;-83
2023/11/02 11:26:13;;;;;;;12.18;2.30;;;;;;;9.67;100.00;96981.09;4997522;28;20085;-88
2023/11/02 11:28:39;;;;;;;8.27;1.42;;;;;;;9.73;100.00;96987.31;4979579;28;20038;-82
2023/11/02 11:31:10;;;;;;;8.82;1.50;;;;;;;9.77;100.00;96977.06;4997077;28;20455;-83
2023/11/02 11:33:47;;;;;;;9.75;1.60;;;;;;;9.85;100.00;96964.28;4997168;28;20038;-85
2023/11/02 11:36:22;;;;;;;8.45;1.75;;;;;;;9.89;100.00;96984.00;4996650;28;20023;-81
2023/11/02 11:38:49;;;;;;;6.88;1.52;;;;;;;9.86;100.00;96997.72;4995827;28;20030;-82
2023/11/02 11:41:40;;;;;;;7.55;1.60;;;;;;;9.82;100.00;96974.53;4995771;28;20122;-79